Keady, United Kingdom
Current Conditions -  °F | °C
As of 9:50 PM on Monday 20 Oct 2014 (Local Time) from EGAA Reporting Station
Overcast Overcast  
Wind Chill: 13°   Ceiling: 1400
Heat Index: 13°   Visibility: 6mi
Dew Point: 11°   Wind: 13mph
Humidity: 88%   Direction: 190°S
Pressure: 29.47"   Gusts: NA
Location:  54.25°N, 6.7°W
Report Text: EGAA 202050Z 19011KT 150V210 9999 SCT009 BKN014 OVC018 13/11 Q0998
Loading
Personal Weather Stations






























Interactive Weather Map
Tropical Storm Tracking
New forecast layout! Learn more

10-Day Weather Forecast

Advertisements
Track Severe Weather on mobile